createdAt,value
2018-08-19T00:02:21.225Z,4.87
2018-08-19T00:05:05.455Z,4.77
2018-08-19T00:07:34.719Z,4.50
2018-08-19T00:10:05.216Z,5.27
2018-08-19T00:12:38.845Z,4.60
2018-08-19T00:15:08.084Z,4.47
2018-08-19T00:17:37.359Z,4.70
2018-08-19T00:20:08.862Z,5.23
2018-08-19T00:22:38.303Z,4.07
2018-08-19T00:25:07.690Z,4.90
2018-08-19T00:27:38.227Z,3.97
2018-08-19T00:30:08.871Z,4.90
2018-08-19T00:32:38.291Z,4.67
2018-08-19T00:35:07.846Z,5.07
2018-08-19T00:37:37.043Z,5.13
2018-08-19T00:40:10.747Z,4.90
2018-08-19T00:42:42.258Z,4.80
2018-08-19T00:45:11.535Z,4.80
2018-08-19T00:47:40.719Z,4.60
2018-08-19T00:50:09.931Z,4.20
2018-08-19T00:52:39.670Z,4.07
2018-08-19T00:55:08.846Z,5.00
2018-08-19T00:57:40.807Z,4.10
2018-08-19T01:00:10.039Z,4.20
2018-08-19T01:02:39.239Z,4.30
2018-08-19T01:05:08.491Z,4.13
2018-08-19T01:07:37.735Z,4.80
2018-08-19T01:10:06.993Z,4.73
2018-08-19T01:12:36.563Z,4.50
2018-08-19T01:15:08.610Z,3.90
2018-08-19T01:17:40.980Z,3.83
2018-08-19T01:20:11.848Z,4.10
2018-08-19T01:22:42.441Z,3.67
2018-08-19T01:25:13.750Z,4.07
2018-08-19T01:27:43.409Z,4.13
2018-08-19T01:30:14.983Z,4.30
2018-08-19T01:32:44.591Z,4.20
2018-08-19T01:35:15.279Z,3.60
2018-08-19T01:37:44.563Z,4.03
2018-08-19T01:40:17.467Z,4.27
2018-08-19T01:42:47.692Z,4.07
2018-08-19T01:45:16.937Z,4.07
2018-08-19T01:47:46.475Z,4.13
2018-08-19T01:50:17.135Z,4.50
2018-08-19T01:52:48.924Z,3.90
2018-08-19T01:55:19.883Z,4.33
2018-08-19T01:57:50.276Z,4.60
2018-08-19T02:00:19.756Z,4.40
2018-08-19T02:02:59.668Z,4.27
2018-08-19T02:05:28.895Z,4.27
2018-08-19T02:07:59.820Z,4.40
2018-08-19T02:10:29.905Z,4.77
2018-08-19T02:12:59.580Z,4.37
2018-08-19T02:15:29.892Z,4.60
2018-08-19T02:18:05.677Z,5.40
2018-08-19T02:20:39.042Z,5.27
2018-08-19T02:23:09.911Z,4.30
2018-08-19T02:25:45.507Z,4.40
2018-08-19T02:28:19.151Z,4.87
2018-08-19T02:30:53.848Z,4.10
2018-08-19T02:33:24.214Z,4.90
2018-08-19T02:36:00.766Z,4.17
2018-08-19T02:38:30.007Z,4.40
2018-08-19T02:40:59.233Z,4.00
2018-08-19T02:43:30.044Z,4.23
2018-08-19T02:45:59.271Z,4.33
2018-08-19T02:48:42.683Z,4.33
2018-08-19T02:51:14.887Z,4.00
2018-08-19T02:53:46.135Z,3.80
2018-08-19T02:56:16.067Z,3.90
2018-08-19T02:58:46.310Z,4.33
2018-08-19T03:01:16.580Z,3.70
2018-08-19T03:03:45.787Z,4.37
2018-08-19T03:06:15.028Z,4.03
2018-08-19T03:08:49.699Z,3.90
2018-08-19T03:11:20.751Z,4.17
2018-08-19T03:13:49.951Z,3.70
2018-08-19T03:16:19.280Z,3.90
2018-08-19T03:18:50.620Z,4.10
2018-08-19T03:21:20.546Z,4.13
2018-08-19T03:23:50.666Z,4.20
2018-08-19T03:26:19.875Z,3.70
2018-08-19T03:28:49.381Z,4.27
2018-08-19T03:31:18.769Z,4.70
2018-08-19T03:33:47.959Z,3.60
2018-08-19T03:36:17.161Z,4.10
2018-08-19T03:38:46.334Z,4.67
2018-08-19T03:41:15.664Z,4.50
2018-08-19T03:43:51.642Z,3.77
2018-08-19T03:46:21.324Z,4.20
2018-08-19T03:48:50.932Z,4.20
2018-08-19T03:51:20.133Z,3.83
2018-08-19T03:53:49.511Z,4.30
2018-08-19T03:56:24.112Z,4.23
2018-08-19T03:58:57.347Z,4.73
2018-08-19T04:01:41.755Z,4.23
2018-08-19T04:04:12.380Z,4.10
2018-08-19T04:06:41.643Z,3.93
2018-08-19T04:09:10.843Z,4.10
2018-08-19T04:11:40.041Z,4.07
2018-08-19T04:14:25.564Z,4.30
2018-08-19T04:16:56.227Z,4.03
2018-08-19T04:19:26.689Z,4.17
2018-08-19T04:21:59.204Z,3.50
2018-08-19T04:24:29.075Z,4.53
2018-08-19T04:26:58.557Z,4.53
2018-08-19T04:29:28.491Z,4.73
2018-08-19T04:31:57.720Z,4.80
2018-08-19T04:34:26.879Z,4.00
2018-08-19T04:36:56.350Z,4.33
2018-08-19T04:39:25.707Z,4.10
2018-08-19T04:41:55.073Z,4.73
2018-08-19T04:44:25.054Z,4.37
2018-08-19T04:46:54.267Z,4.23
2018-08-19T04:49:23.455Z,4.67
2018-08-19T04:51:52.633Z,5.17
2018-08-19T04:54:21.919Z,5.37
2018-08-19T04:56:51.148Z,4.60
2018-08-19T04:59:20.334Z,4.70
2018-08-19T05:01:50.051Z,4.63
2018-08-19T05:04:19.219Z,4.13
2018-08-19T05:06:48.426Z,4.33
2018-08-19T05:09:17.699Z,4.23
2018-08-19T05:11:46.871Z,3.90
2018-08-19T05:14:16.050Z,4.50
2018-08-19T05:16:45.268Z,4.20
2018-08-19T05:19:15.236Z,4.50
2018-08-19T05:21:44.419Z,3.87
2018-08-19T05:24:14.044Z,4.40
2018-08-19T05:26:43.347Z,4.00
2018-08-19T05:29:13.127Z,4.00
2018-08-19T05:31:58.571Z,4.30
2018-08-19T05:34:33.974Z,4.03
2018-08-19T05:37:03.659Z,4.40
2018-08-19T05:39:32.959Z,3.80
2018-08-19T05:42:08.721Z,3.93
2018-08-19T05:44:39.249Z,3.97
2018-08-19T05:47:11.951Z,3.97
2018-08-19T05:49:42.456Z,3.70
2018-08-19T05:52:19.207Z,4.30
2018-08-19T05:55:02.877Z,3.70
2018-08-19T05:57:33.696Z,4.17
2018-08-19T06:00:08.175Z,4.00
2018-08-19T06:02:42.369Z,4.20
2018-08-19T06:05:11.566Z,3.73
2018-08-19T06:07:40.812Z,3.77
2018-08-19T06:10:11.180Z,4.27
2018-08-19T06:12:40.960Z,3.80
2018-08-19T06:15:10.183Z,3.87
2018-08-19T06:17:40.756Z,3.87
2018-08-19T06:20:10.064Z,4.00
2018-08-19T06:22:41.134Z,4.07
2018-08-19T06:25:11.785Z,3.97
2018-08-19T06:27:45.092Z,4.20
2018-08-19T06:30:15.199Z,3.43
2018-08-19T06:32:44.481Z,3.40
2018-08-19T06:35:14.157Z,3.70
2018-08-19T06:37:43.370Z,3.43
2018-08-19T06:40:14.984Z,3.90
2018-08-19T06:42:44.446Z,4.10
2018-08-19T06:45:14.575Z,3.53
2018-08-19T06:47:43.872Z,3.50
2018-08-19T06:50:27.073Z,3.70
2018-08-19T06:52:56.955Z,3.73
2018-08-19T06:55:26.419Z,4.40
2018-08-19T06:57:57.548Z,3.70
2018-08-19T07:00:31.018Z,3.30
2018-08-19T07:03:01.628Z,4.40
2018-08-19T07:05:31.324Z,3.03
2018-08-19T07:08:01.049Z,2.97
2018-08-19T07:10:37.070Z,3.10
2018-08-19T07:13:08.776Z,3.73
2018-08-19T07:15:39.310Z,3.60
2018-08-19T07:18:10.533Z,3.33
2018-08-19T07:20:40.831Z,2.97
2018-08-19T07:23:10.579Z,3.43
2018-08-19T07:25:43.587Z,3.33
2018-08-19T07:28:13.902Z,3.10
2018-08-19T07:30:43.567Z,3.40
2018-08-19T07:33:13.303Z,3.47
2018-08-19T07:35:42.507Z,3.60
2018-08-19T07:38:11.731Z,3.20
2018-08-19T07:40:40.933Z,3.27
2018-08-19T07:43:10.112Z,3.70
2018-08-19T07:45:39.987Z,3.07
2018-08-19T07:48:09.823Z,3.40
2018-08-19T07:50:39.008Z,3.37
2018-08-19T07:53:08.180Z,2.83
2018-08-19T07:55:37.495Z,3.30
2018-08-19T07:58:06.736Z,2.93
2018-08-19T08:00:38.887Z,3.27
2018-08-19T08:03:08.228Z,2.60
2018-08-19T08:05:43.531Z,2.90
2018-08-19T08:08:12.750Z,2.70
2018-08-19T08:10:42.215Z,2.83
2018-08-19T08:13:12.563Z,3.10
2018-08-19T08:15:59.231Z,2.87
2018-08-19T08:18:28.456Z,3.83
2018-08-19T08:21:02.857Z,2.73
2018-08-19T08:23:32.339Z,2.67
2018-08-19T08:26:01.531Z,2.60
2018-08-19T08:28:30.727Z,2.73
2018-08-19T08:30:59.944Z,3.30
2018-08-19T08:33:29.407Z,2.90
2018-08-19T08:35:58.893Z,2.77
2018-08-19T08:38:28.104Z,2.87
2018-08-19T08:40:57.484Z,2.67
2018-08-19T08:43:26.655Z,2.60
2018-08-19T08:45:57.475Z,2.40
2018-08-19T08:48:27.108Z,3.00
2018-08-19T08:50:56.717Z,3.23
2018-08-19T08:53:27.820Z,2.60
2018-08-19T08:55:57.051Z,2.53
2018-08-19T08:58:26.306Z,2.53
2018-08-19T09:00:55.552Z,3.20
2018-08-19T09:03:24.891Z,2.60
2018-08-19T09:05:54.138Z,3.30
2018-08-19T09:08:23.699Z,2.83
2018-08-19T09:10:53.070Z,2.87
2018-08-19T09:13:22.422Z,2.40
2018-08-19T09:15:51.667Z,2.50
2018-08-19T09:18:20.883Z,2.53
2018-08-19T09:20:50.289Z,2.70
2018-08-19T09:23:19.725Z,1.90
2018-08-19T09:25:51.007Z,2.40
2018-08-19T09:28:20.563Z,2.70
2018-08-19T09:30:49.760Z,3.20
2018-08-19T09:33:18.941Z,2.93
2018-08-19T09:35:48.150Z,2.57
2018-08-19T09:38:19.740Z,2.73
2018-08-19T09:40:49.406Z,2.27
2018-08-19T09:43:18.893Z,2.80
2018-08-19T09:45:48.612Z,2.20
2018-08-19T09:48:18.963Z,2.33
2018-08-19T09:50:48.187Z,2.70
2018-08-19T09:53:17.419Z,2.40
2018-08-19T09:55:52.864Z,2.20
2018-08-19T09:58:22.747Z,2.40
2018-08-19T10:00:57.134Z,3.10
2018-08-19T10:03:26.547Z,3.23
2018-08-19T10:05:55.748Z,2.50
2018-08-19T10:08:25.350Z,2.83
2018-08-19T10:10:54.526Z,2.67
2018-08-19T10:13:23.750Z,2.50
2018-08-19T10:15:52.971Z,2.83
2018-08-19T10:18:22.358Z,2.40
2018-08-19T10:20:51.523Z,2.63
2018-08-19T10:23:24.388Z,2.43
2018-08-19T10:25:53.911Z,3.30
2018-08-19T10:28:23.099Z,2.63
2018-08-19T10:30:58.269Z,2.00
2018-08-19T10:33:27.643Z,2.97
2018-08-19T10:36:00.031Z,2.93
2018-08-19T10:38:29.320Z,2.70
2018-08-19T10:41:03.727Z,3.13
2018-08-19T10:43:32.992Z,2.87
2018-08-19T10:46:02.180Z,2.67
2018-08-19T10:48:32.148Z,2.00
2018-08-19T10:51:02.619Z,3.00
2018-08-19T10:53:31.806Z,3.00
2018-08-19T10:56:02.340Z,2.57
2018-08-19T10:58:31.682Z,2.30
2018-08-19T11:01:00.806Z,2.67
2018-08-19T11:03:31.035Z,2.50
2018-08-19T11:06:00.262Z,2.70
2018-08-19T11:08:29.576Z,2.83
2018-08-19T11:11:00.273Z,2.73
2018-08-19T11:13:29.496Z,2.40
2018-08-19T11:15:59.075Z,3.27
2018-08-19T11:18:41.855Z,2.50
2018-08-19T11:21:13.223Z,2.70
2018-08-19T11:23:44.557Z,2.50
2018-08-19T11:26:14.087Z,2.33
2018-08-19T11:28:46.028Z,2.30
2018-08-19T11:31:21.646Z,2.70
2018-08-19T11:33:52.679Z,2.67
2018-08-19T11:36:35.015Z,3.10
2018-08-19T11:39:11.584Z,2.80
2018-08-19T11:41:40.774Z,2.73
2018-08-19T11:44:13.179Z,3.17
2018-08-19T11:46:42.435Z,2.73
2018-08-19T11:49:16.564Z,2.23
2018-08-19T11:51:56.606Z,2.40
2018-08-19T11:54:26.607Z,2.33
2018-08-19T11:57:06.569Z,2.43
2018-08-19T11:59:41.368Z,2.50
2018-08-19T12:02:21.098Z,2.33
2018-08-19T12:04:50.360Z,2.27
2018-08-19T12:07:20.023Z,2.57
2018-08-19T12:09:54.727Z,2.40
2018-08-19T12:12:40.576Z,2.47
2018-08-19T12:15:10.784Z,2.33
2018-08-19T12:17:39.980Z,2.47
2018-08-19T12:20:09.650Z,2.67
2018-08-19T12:22:40.494Z,2.20
2018-08-19T12:25:09.676Z,2.20
2018-08-19T12:27:39.064Z,2.30
2018-08-19T12:30:15.572Z,1.87
2018-08-19T12:32:44.844Z,1.90
2018-08-19T12:35:16.482Z,2.00
2018-08-19T12:37:45.691Z,2.90
2018-08-19T12:40:14.916Z,2.40
2018-08-19T12:42:49.504Z,2.20
2018-08-19T12:45:19.034Z,2.40
2018-08-19T12:47:48.255Z,2.07
2018-08-19T12:50:17.931Z,2.30
2018-08-19T12:52:47.408Z,2.67
2018-08-19T12:55:16.936Z,2.40
2018-08-19T12:57:49.861Z,2.17
2018-08-19T13:00:26.222Z,2.40
2018-08-19T13:02:55.700Z,2.57
2018-08-19T13:05:24.910Z,1.80
2018-08-19T13:07:54.291Z,2.03
2018-08-19T13:10:24.262Z,2.50
2018-08-19T13:12:54.879Z,1.80
2018-08-19T13:15:25.876Z,2.20
2018-08-19T13:17:55.742Z,2.20
2018-08-19T13:20:25.276Z,2.20
2018-08-19T13:23:03.778Z,2.10
2018-08-19T13:25:34.492Z,1.90
2018-08-19T13:28:04.051Z,2.00
2018-08-19T13:30:34.387Z,2.23
2018-08-19T13:33:04.683Z,2.33
2018-08-19T13:35:33.947Z,2.40
2018-08-19T13:38:03.292Z,1.83
2018-08-19T13:40:32.584Z,2.07
2018-08-19T13:43:01.897Z,2.20
2018-08-19T13:45:31.504Z,1.90
2018-08-19T13:48:02.011Z,1.93
2018-08-19T13:50:31.559Z,2.10
2018-08-19T13:53:00.863Z,2.17
2018-08-19T13:55:30.055Z,2.43
2018-08-19T13:57:59.714Z,2.03
2018-08-19T14:00:33.380Z,2.53
2018-08-19T14:03:03.035Z,1.70
2018-08-19T14:05:32.300Z,1.80
2018-08-19T14:08:01.649Z,2.20
2018-08-19T14:10:30.955Z,2.33
2018-08-19T14:13:00.173Z,2.03
2018-08-19T14:15:29.465Z,2.33
2018-08-19T14:17:58.859Z,2.50
2018-08-19T14:20:28.064Z,2.33
2018-08-19T14:22:58.309Z,2.03
2018-08-19T14:25:27.555Z,1.80
2018-08-19T14:27:57.287Z,2.40
2018-08-19T14:30:27.675Z,1.90
2018-08-19T14:32:58.044Z,1.90
2018-08-19T14:35:27.263Z,2.07
2018-08-19T14:37:57.519Z,2.10
2018-08-19T14:40:28.343Z,2.30
2018-08-19T14:42:57.648Z,2.03
2018-08-19T14:45:26.903Z,2.00
2018-08-19T14:47:56.212Z,2.20
2018-08-19T14:50:27.688Z,1.90
2018-08-19T14:52:57.453Z,2.13
2018-08-19T14:55:26.874Z,2.50
2018-08-19T14:57:56.192Z,2.23
2018-08-19T15:00:26.467Z,2.23
2018-08-19T15:02:56.950Z,2.10
2018-08-19T15:05:26.142Z,2.27
2018-08-19T15:07:56.478Z,2.20
2018-08-19T15:10:26.103Z,2.87
2018-08-19T15:12:55.429Z,2.20
2018-08-19T15:15:24.775Z,2.77
2018-08-19T15:18:02.507Z,2.40
2018-08-19T15:20:33.162Z,2.60
2018-08-19T15:23:13.859Z,2.50
2018-08-19T15:25:43.842Z,2.60
2018-08-19T15:28:13.278Z,2.67
2018-08-19T15:30:43.199Z,2.60
2018-08-19T15:33:14.111Z,2.60
2018-08-19T15:35:43.774Z,2.47
2018-08-19T15:38:13.649Z,2.97
2018-08-19T15:40:45.959Z,3.20
2018-08-19T15:43:16.239Z,2.70
2018-08-19T15:45:46.770Z,2.60
2018-08-19T15:48:16.273Z,2.30
2018-08-19T15:50:45.899Z,2.50
2018-08-19T15:53:17.437Z,3.30
2018-08-19T15:55:47.012Z,2.63
2018-08-19T15:58:16.262Z,2.13
2018-08-19T16:00:45.651Z,2.60
2018-08-19T16:03:14.955Z,2.30
2018-08-19T16:05:44.223Z,2.53
2018-08-19T16:08:14.035Z,2.50
2018-08-19T16:10:44.327Z,2.83
2018-08-19T16:13:14.884Z,3.10
2018-08-19T16:15:44.099Z,2.17
2018-08-19T16:18:13.332Z,2.70
2018-08-19T16:20:47.993Z,2.13
2018-08-19T16:23:17.995Z,2.80
2018-08-19T16:25:47.507Z,2.40
2018-08-19T16:28:18.723Z,2.00
2018-08-19T16:30:49.195Z,2.40
2018-08-19T16:33:18.794Z,2.50
2018-08-19T16:35:48.627Z,2.30
2018-08-19T16:38:18.019Z,2.53
2018-08-19T16:40:47.818Z,2.07
2018-08-19T16:43:17.157Z,2.57
2018-08-19T16:45:46.520Z,2.73
2018-08-19T16:48:20.214Z,2.60
2018-08-19T16:50:50.298Z,2.47
2018-08-19T16:53:21.783Z,2.73
2018-08-19T16:55:50.991Z,2.53
2018-08-19T16:58:20.363Z,2.50
2018-08-19T17:00:49.614Z,2.50
2018-08-19T17:03:27.513Z,2.33
2018-08-19T17:05:57.443Z,2.50
2018-08-19T17:08:26.643Z,2.63
2018-08-19T17:10:56.232Z,3.00
2018-08-19T17:13:25.438Z,2.67
2018-08-19T17:15:54.730Z,2.90
2018-08-19T17:18:25.215Z,2.53
2018-08-19T17:20:54.439Z,2.60
2018-08-19T17:23:24.599Z,2.80
2018-08-19T17:25:54.067Z,2.37
2018-08-19T17:28:25.139Z,2.90
2018-08-19T17:30:55.136Z,3.00
2018-08-19T17:33:30.076Z,3.27
2018-08-19T17:35:59.336Z,3.03
2018-08-19T17:38:33.723Z,2.90
2018-08-19T17:41:03.425Z,2.90
2018-08-19T17:43:38.160Z,3.30
2018-08-19T17:46:14.227Z,2.90
2018-08-19T17:48:44.315Z,2.80
2018-08-19T17:51:27.214Z,3.27
2018-08-19T17:53:56.431Z,2.80
2018-08-19T17:56:25.953Z,2.63
2018-08-19T17:58:55.551Z,2.87
2018-08-19T18:01:25.279Z,3.00
2018-08-19T18:03:54.656Z,3.03
2018-08-19T18:06:24.097Z,3.33
2018-08-19T18:08:53.899Z,2.93
2018-08-19T18:11:23.195Z,2.83
2018-08-19T18:13:52.397Z,3.33
2018-08-19T18:16:21.936Z,2.93
2018-08-19T18:18:51.197Z,3.13
2018-08-19T18:21:20.406Z,3.30
2018-08-19T18:23:50.303Z,2.87
2018-08-19T18:26:20.598Z,2.93
2018-08-19T18:28:51.111Z,3.27
2018-08-19T18:31:21.775Z,2.80
2018-08-19T18:34:03.347Z,2.80
2018-08-19T18:36:33.789Z,3.37
2018-08-19T18:39:06.879Z,2.50
2018-08-19T18:41:37.671Z,3.07
2018-08-19T18:44:08.269Z,3.33
2018-08-19T18:46:37.764Z,2.73
2018-08-19T18:49:11.124Z,3.53
2018-08-19T18:51:41.878Z,3.17
2018-08-19T18:54:20.051Z,3.20
2018-08-19T18:56:50.895Z,3.20
2018-08-19T18:59:20.612Z,3.20
2018-08-19T19:01:49.820Z,3.10
2018-08-19T19:04:19.212Z,2.93
2018-08-19T19:06:48.643Z,3.13
2018-08-19T19:09:18.095Z,2.90
2018-08-19T19:11:50.340Z,3.13
2018-08-19T19:14:20.538Z,3.70
2018-08-19T19:16:53.814Z,3.60
2018-08-19T19:19:23.060Z,3.73
2018-08-19T19:22:01.500Z,3.80
2018-08-19T19:24:34.898Z,3.50
2018-08-19T19:27:05.973Z,3.10
2018-08-19T19:29:35.183Z,3.37
2018-08-19T19:32:13.697Z,3.03
2018-08-19T19:34:42.884Z,3.43
2018-08-19T19:37:12.599Z,3.37
2018-08-19T19:39:41.863Z,3.40
2018-08-19T19:42:12.431Z,3.10
2018-08-19T19:44:41.606Z,3.60
2018-08-19T19:47:11.232Z,3.83
2018-08-19T19:49:46.828Z,5.43
2018-08-19T19:52:16.205Z,4.93
2018-08-19T19:54:45.395Z,5.10
2018-08-19T19:57:15.883Z,5.07
2018-08-19T19:59:45.098Z,3.77
2018-08-19T20:02:19.459Z,4.07
2018-08-19T20:04:48.875Z,4.30
2018-08-19T20:07:18.875Z,4.67
2018-08-19T20:09:48.044Z,4.40
2018-08-19T20:12:25.735Z,4.87
2018-08-19T20:14:55.363Z,3.63
2018-08-19T20:17:24.607Z,4.93
2018-08-19T20:19:54.286Z,3.97
2018-08-19T20:22:23.539Z,3.90
2018-08-19T20:24:52.770Z,4.20
2018-08-19T20:27:21.996Z,4.63
2018-08-19T20:29:52.875Z,4.00
2018-08-19T20:32:22.110Z,4.17
2018-08-19T20:34:51.523Z,3.57
2018-08-19T20:37:23.155Z,4.70
2018-08-19T20:39:53.023Z,3.60
2018-08-19T20:42:22.420Z,4.17
2018-08-19T20:44:51.652Z,4.00
2018-08-19T20:47:20.925Z,4.30
2018-08-19T20:49:50.583Z,4.20
2018-08-19T20:52:27.240Z,3.60
2018-08-19T20:54:56.507Z,4.43
2018-08-19T20:57:25.720Z,3.50
2018-08-19T20:59:55.348Z,4.07
2018-08-19T21:02:24.539Z,4.40
2018-08-19T21:04:53.716Z,4.33
2018-08-19T21:07:22.932Z,3.60
2018-08-19T21:09:52.129Z,3.90
2018-08-19T21:12:21.316Z,4.27
2018-08-19T21:14:50.590Z,4.10
2018-08-19T21:17:19.702Z,3.93
2018-08-19T21:19:48.876Z,4.17
2018-08-19T21:22:18.479Z,3.53
2018-08-19T21:24:47.659Z,3.70
2018-08-19T21:27:16.837Z,4.00
2018-08-19T21:29:46.113Z,4.30
2018-08-19T21:32:15.235Z,3.93
2018-08-19T21:34:44.419Z,3.70
2018-08-19T21:37:20.796Z,4.57
2018-08-19T21:39:50.271Z,4.47
2018-08-19T21:42:19.459Z,4.33
2018-08-19T21:44:48.979Z,3.90
2018-08-19T21:47:18.163Z,4.10
2018-08-19T21:49:51.827Z,4.20
2018-08-19T21:52:21.275Z,4.20
2018-08-19T21:54:50.475Z,4.63
2018-08-19T21:57:19.751Z,3.93
2018-08-19T21:59:48.931Z,4.57
2018-08-19T22:02:25.443Z,4.13
2018-08-19T22:04:54.607Z,4.50
2018-08-19T22:07:23.791Z,4.20
2018-08-19T22:09:53.320Z,4.23
2018-08-19T22:12:22.501Z,4.00
2018-08-19T22:14:51.683Z,4.10
2018-08-19T22:17:21.519Z,3.70
2018-08-19T22:19:50.790Z,4.00
2018-08-19T22:22:20.180Z,5.03
2018-08-19T22:24:49.406Z,4.27
2018-08-19T22:27:18.659Z,4.40
2018-08-19T22:29:49.951Z,4.37
2018-08-19T22:32:19.156Z,4.10
2018-08-19T22:34:48.333Z,3.70
2018-08-19T22:37:17.776Z,3.33
2018-08-19T22:39:47.509Z,4.17
2018-08-19T22:42:16.682Z,4.27
2018-08-19T22:44:45.888Z,4.30
2018-08-19T22:47:15.091Z,4.20
2018-08-19T22:49:44.267Z,4.07
2018-08-19T22:52:22.683Z,4.07
2018-08-19T22:54:54.963Z,9.20
2018-08-19T22:57:24.247Z,29.30
2018-08-19T22:59:53.536Z,24.97
2018-08-19T23:02:23.203Z,13.13
2018-08-19T23:04:52.419Z,12.40
2018-08-19T23:07:21.603Z,8.00
2018-08-19T23:09:50.791Z,4.03
2018-08-19T23:12:20.405Z,4.07
2018-08-19T23:15:00.839Z,4.13
2018-08-19T23:17:30.043Z,3.97
2018-08-19T23:19:59.219Z,4.20
2018-08-19T23:22:28.391Z,4.40
2018-08-19T23:24:57.612Z,4.23
2018-08-19T23:27:26.815Z,4.03
2018-08-19T23:29:56.007Z,3.80
2018-08-19T23:32:25.470Z,3.83
2018-08-19T23:34:54.656Z,4.07
2018-08-19T23:37:23.842Z,3.47
2018-08-19T23:39:53.624Z,3.30
2018-08-19T23:42:22.819Z,3.50
2018-08-19T23:44:52.017Z,3.47
2018-08-19T23:47:21.235Z,3.30
2018-08-19T23:49:50.415Z,3.93
2018-08-19T23:52:19.610Z,3.47
2018-08-19T23:54:49.135Z,3.20
2018-08-19T23:57:18.504Z,3.57
2018-08-19T23:59:47.691Z,3.60
